Time;durP1;ratioP1;P1;durP2;ratioP2;P2;SDS_P1;SDS_P2;PMS_P1;PMS_P2;Temp;Humidity;BMP_temperature;BMP_pressure;BME280_temperature;BME280_humidity;BME280_pressure;Samples;Min_cycle;Max_cycle;Signal;HPM_P1;HPM_P2
2022/01/27 00:00:46;;;;;;;63.10;26.83;;;5.50;99.90;;;;;;5039451;28;20249;-71
2022/01/27 00:03:22;;;;;;;72.72;30.02;;;5.50;99.90;;;;;;5039976;28;20893;-71
2022/01/27 00:05:53;;;;;;;69.03;29.15;;;5.60;99.90;;;;;;5040098;28;20211;-70
2022/01/27 00:08:27;;;;;;;74.63;31.40;;;5.60;99.90;;;;;;5041247;28;20221;-70
2022/01/27 00:10:58;;;;;;;65.30;30.83;;;5.60;99.90;;;;;;5041836;28;20202;-73
2022/01/27 00:13:31;;;;;;;71.47;31.55;;;5.60;99.90;;;;;;5050269;28;20221;-70
2022/01/27 00:16:12;;;;;;;57.13;29.23;;;5.60;99.90;;;;;;5051102;28;20221;-71
2022/01/27 00:18:42;;;;;;;65.60;30.70;;;5.60;99.90;;;;;;5039107;28;20217;-68
2022/01/27 00:21:11;;;;;;;77.25;32.10;;;5.60;99.90;;;;;;5039424;28;20205;-68
2022/01/27 00:23:40;;;;;;;76.20;31.20;;;5.50;99.90;;;;;;5038985;28;20806;-65
2022/01/27 00:26:09;;;;;;;66.80;27.52;;;5.50;99.90;;;;;;5039667;28;20225;-65
2022/01/27 00:28:37;;;;;;;64.28;31.55;;;5.60;99.90;;;;;;5039125;28;20248;-68
2022/01/27 00:31:04;;;;;;;63.85;31.60;;;5.60;99.90;;;;;;5039391;28;20204;-66
2022/01/27 00:33:32;;;;;;;66.80;28.92;;;5.50;99.90;;;;;;5037419;28;20797;-66
2022/01/27 00:36:02;;;;;;;64.63;32.90;;;5.50;99.90;;;;;;5041241;28;20230;-66
2022/01/27 00:38:30;;;;;;;70.00;29.13;;;5.50;99.90;;;;;;5039837;28;20295;-67
2022/01/27 00:40:59;;;;;;;69.32;33.38;;;5.60;99.90;;;;;;5039894;28;20227;-67
2022/01/27 00:43:27;;;;;;;68.85;31.60;;;5.50;99.90;;;;;;5040482;28;20214;-66
2022/01/27 00:45:55;;;;;;;73.88;34.63;;;5.50;99.90;;;;;;5041153;28;20256;-66
2022/01/27 00:48:22;;;;;;;75.60;34.50;;;5.50;99.90;;;;;;5040704;28;20247;-67
2022/01/27 00:50:55;;;;;;;75.13;33.78;;;5.50;99.90;;;;;;5040377;28;20208;-67
2022/01/27 00:53:35;;;;;;;80.53;35.05;;;5.60;99.90;;;;;;5039415;28;20230;-67
2022/01/27 00:56:15;;;;;;;76.45;33.45;;;5.60;99.90;;;;;;5039697;28;20217;-69
2022/01/27 00:58:51;;;;;;;77.18;35.30;;;5.60;99.90;;;;;;5038684;28;20225;-69
2022/01/27 01:01:24;;;;;;;83.85;38.42;;;5.60;99.90;;;;;;5039595;28;20211;-69
2022/01/27 01:03:56;;;;;;;71.47;32.75;;;5.60;99.90;;;;;;5039257;28;20765;-68
2022/01/27 01:06:37;;;;;;;76.00;34.50;;;5.60;99.90;;;;;;5039926;28;20271;-69
2022/01/27 01:15:01;;;;;;;77.82;33.38;;;5.70;99.90;;;;;;5040097;28;20218;-67
2022/01/27 01:17:36;;;;;;;71.07;34.35;;;5.60;99.90;;;;;;5040072;28;20222;-68
2022/01/27 01:31:15;;;;;;;72.65;35.58;;;5.50;99.90;;;;;;5038696;28;20287;-67
2022/01/27 01:33:45;;;;;;;71.78;34.00;;;5.50;99.90;;;;;;5039511;28;20321;-68
2022/01/27 01:36:15;;;;;;;84.22;38.75;;;5.40;99.90;;;;;;5037859;28;20316;-67
2022/01/27 01:38:45;;;;;;;74.50;35.40;;;5.50;99.90;;;;;;5039083;28;20228;-66
2022/01/27 01:41:14;;;;;;;78.10;37.13;;;5.50;99.90;;;;;;5039339;28;20208;-68
2022/01/27 01:43:42;;;;;;;75.03;34.33;;;5.50;99.90;;;;;;5038917;28;20202;-69
2022/01/27 01:46:10;;;;;;;74.25;36.55;;;5.50;99.90;;;;;;5038829;28;20283;-68
2022/01/27 01:48:38;;;;;;;80.75;36.92;;;5.50;99.90;;;;;;5036625;28;20225;-68
2022/01/27 01:51:06;;;;;;;80.15;37.90;;;5.50;99.90;;;;;;5039089;28;20297;-66
2022/01/27 01:53:33;;;;;;;76.00;36.28;;;5.60;99.90;;;;;;5042822;28;20739;-67
2022/01/27 01:56:01;;;;;;;85.55;39.67;;;5.60;99.90;;;;;;5042843;28;20253;-67
2022/01/27 01:58:30;;;;;;;76.90;39.78;;;5.60;99.90;;;;;;5042880;28;20229;-66
2022/01/27 02:00:58;;;;;;;77.47;37.15;;;5.60;99.90;;;;;;5042928;28;20213;-67
2022/01/27 02:03:26;;;;;;;83.43;37.85;;;5.50;99.90;;;;;;5042777;28;20320;-66
2022/01/27 02:05:56;;;;;;;84.78;37.70;;;5.50;99.90;;;;;;5043266;28;20208;-67
2022/01/27 02:08:36;;;;;;;77.28;38.05;;;5.60;99.90;;;;;;5043132;28;20747;-66
2022/01/27 02:19:27;;;;;;;74.15;34.88;;;5.60;99.90;;;;;;5055783;28;20197;-66
2022/01/27 02:21:58;;;;;;;66.65;32.17;;;5.70;99.90;;;;;;5055398;28;20813;-67
2022/01/27 02:24:29;;;;;;;82.60;35.67;;;5.60;99.90;;;;;;5048444;28;20255;-67
2022/01/27 02:26:57;;;;;;;79.47;36.10;;;5.70;99.90;;;;;;5044461;28;20232;-67
2022/01/27 02:29:26;;;;;;;63.45;32.47;;;5.70;99.90;;;;;;5043521;28;20197;-67
2022/01/27 02:31:55;;;;;;;63.42;31.60;;;5.70;99.90;;;;;;5043703;28;20202;-67
2022/01/27 02:34:24;;;;;;;61.85;33.42;;;5.80;99.90;;;;;;5042743;28;20201;-67
2022/01/27 02:36:52;;;;;;;59.72;33.15;;;5.70;99.90;;;;;;5043755;28;20313;-66
2022/01/27 02:39:21;;;;;;;64.68;33.88;;;5.70;99.90;;;;;;5065659;28;20269;-66
2022/01/27 02:42:02;;;;;;;64.03;34.22;;;5.70;99.90;;;;;;5053339;28;20198;-67
2022/01/27 02:44:35;;;;;;;52.65;30.00;;;5.80;99.90;;;;;;5041958;28;20710;-66
2022/01/27 02:47:04;;;;;;;63.22;29.75;;;5.90;99.90;;;;;;5041585;28;20222;-67
2022/01/27 02:49:32;;;;;;;50.83;29.30;;;5.90;99.90;;;;;;5042315;28;20710;-68
2022/01/27 02:51:59;;;;;;;62.95;30.77;;;5.90;99.90;;;;;;5042132;28;20206;-67
2022/01/27 02:54:29;;;;;;;61.83;31.35;;;5.80;99.90;;;;;;5041813;28;20204;-67
2022/01/27 02:57:16;;;;;;;53.17;27.25;;;5.80;99.90;;;;;;5042119;28;20237;-66
2022/01/27 02:59:44;;;;;;;59.08;30.67;;;5.80;99.90;;;;;;5041846;28;20232;-66
2022/01/27 03:02:12;;;;;;;56.20;29.63;;;5.80;99.90;;;;;;5041631;28;20728;-66
2022/01/27 03:04:40;;;;;;;58.00;30.77;;;5.80;99.90;;;;;;5040079;28;20210;-65
2022/01/27 03:07:09;;;;;;;55.85;29.90;;;5.80;99.90;;;;;;5041375;28;20221;-67
2022/01/27 03:09:39;;;;;;;57.67;28.50;;;5.80;99.90;;;;;;5041648;28;20256;-65
2022/01/27 03:12:10;;;;;;;49.13;27.83;;;5.80;99.90;;;;;;5040929;28;20202;-65
2022/01/27 03:14:40;;;;;;;50.17;28.25;;;5.90;99.90;;;;;;5041628;28;20207;-67
2022/01/27 03:17:09;;;;;;;54.33;29.25;;;5.90;99.90;;;;;;5041439;28;20724;-66
2022/01/27 03:19:37;;;;;;;52.58;27.60;;;5.80;99.90;;;;;;5041198;28;20206;-65
2022/01/27 03:22:07;;;;;;;46.75;27.60;;;5.80;99.90;;;;;;5041945;28;20205;-67
2022/01/27 03:24:36;;;;;;;59.75;29.65;;;5.90;99.90;;;;;;5041649;28;20744;-67
2022/01/27 03:27:13;;;;;;;51.65;27.73;;;5.90;99.90;;;;;;5041571;28;20218;-66
2022/01/27 03:29:41;;;;;;;55.63;29.48;;;6.00;99.90;;;;;;5041053;28;20205;-68
2022/01/27 03:32:09;;;;;;;47.33;26.70;;;5.90;99.90;;;;;;5040992;28;20208;-67
2022/01/27 03:34:37;;;;;;;53.47;28.55;;;5.90;99.90;;;;;;5040566;28;20208;-66
2022/01/27 03:37:05;;;;;;;51.00;27.65;;;5.90;99.90;;;;;;5041688;28;20233;-67
2022/01/27 03:39:36;;;;;;;45.70;26.90;;;5.90;99.90;;;;;;5040990;28;20288;-68
2022/01/27 03:42:06;;;;;;;50.08;26.65;;;6.00;99.90;;;;;;5041079;28;20322;-67
2022/01/27 03:44:35;;;;;;;55.17;29.75;;;5.90;99.90;;;;;;5041002;28;20206;-67
2022/01/27 03:47:04;;;;;;;53.78;26.05;;;5.90;99.90;;;;;;5040560;28;20720;-67
2022/01/27 03:49:31;;;;;;;52.85;27.65;;;5.90;99.90;;;;;;5040597;28;20201;-66
2022/01/27 03:52:01;;;;;;;46.67;25.92;;;5.90;99.90;;;;;;5041431;28;20213;-66
2022/01/27 03:54:30;;;;;;;49.45;28.48;;;5.90;99.90;;;;;;5040621;28;20201;-66
2022/01/27 03:56:59;;;;;;;53.85;27.27;;;5.80;99.90;;;;;;5041499;28;20249;-66
2022/01/27 03:59:29;;;;;;;45.33;27.13;;;5.70;99.90;;;;;;5041559;28;20212;-66
2022/01/27 04:01:57;;;;;;;51.28;26.85;;;5.70;99.90;;;;;;5040687;28;20228;-66
2022/01/27 04:04:26;;;;;;;49.90;27.70;;;5.60;99.90;;;;;;5040608;28;20724;-65
2022/01/27 04:06:54;;;;;;;64.75;29.73;;;5.60;99.90;;;;;;5042005;28;20255;-65
2022/01/27 04:09:24;;;;;;;50.63;27.20;;;5.50;99.90;;;;;;5040934;28;20317;-65
2022/01/27 04:11:52;;;;;;;58.20;30.75;;;5.50;99.90;;;;;;5040838;28;20208;-67
2022/01/27 04:14:20;;;;;;;53.35;29.95;;;5.40;99.90;;;;;;5040564;28;20229;-66
2022/01/27 04:16:49;;;;;;;54.10;29.10;;;5.40;99.90;;;;;;5040559;28;20234;-64
2022/01/27 04:19:17;;;;;;;59.75;29.48;;;5.40;99.90;;;;;;5040373;28;20207;-65
2022/01/27 04:21:50;;;;;;;59.55;30.45;;;5.40;99.90;;;;;;5041306;28;20241;-67
2022/01/27 04:24:18;;;;;;;58.33;31.65;;;5.40;99.90;;;;;;5040528;28;20810;-65
2022/01/27 04:26:51;;;;;;;55.22;29.20;;;5.50;99.90;;;;;;5041076;28;20221;-65
2022/01/27 04:29:21;;;;;;;56.75;30.20;;;5.50;99.90;;;;;;5040965;28;20673;-65
2022/01/27 04:31:52;;;;;;;54.00;30.02;;;5.50;99.90;;;;;;5040825;28;20233;-67
2022/01/27 04:34:20;;;;;;;58.97;30.80;;;5.40;99.90;;;;;;5040524;28;20209;-66
2022/01/27 04:36:48;;;;;;;56.90;29.35;;;5.40;99.90;;;;;;5040438;28;20902;-65
2022/01/27 04:39:21;;;;;;;56.22;29.52;;;5.40;99.90;;;;;;5042070;28;20259;-65
2022/01/27 04:41:55;;;;;;;55.63;29.20;;;5.40;99.90;;;;;;5041572;28;20250;-64
2022/01/27 04:44:29;;;;;;;51.78;29.75;;;5.40;99.90;;;;;;5041557;28;20205;-65
2022/01/27 04:47:03;;;;;;;49.95;27.85;;;5.30;99.90;;;;;;5040552;28;20845;-68
2022/01/27 04:49:31;;;;;;;56.35;28.80;;;5.40;99.90;;;;;;5041276;28;20198;-65
2022/01/27 04:52:00;;;;;;;51.83;29.17;;;5.40;99.90;;;;;;5041162;28;20207;-66
2022/01/27 04:54:33;;;;;;;55.83;27.50;;;5.40;99.90;;;;;;5040841;28;20205;-64
2022/01/27 04:57:03;;;;;;;55.38;27.45;;;5.40;99.90;;;;;;5041636;28;20257;-66
2022/01/27 04:59:37;;;;;;;51.40;28.20;;;5.30;99.90;;;;;;5046867;28;20292;-68
2022/01/27 05:02:12;;;;;;;57.08;29.30;;;5.20;99.90;;;;;;5055624;28;20388;-66
2022/01/27 05:04:43;;;;;;;45.88;27.17;;;5.20;99.90;;;;;;5054659;28;20221;-67
2022/01/27 05:07:11;;;;;;;46.53;26.42;;;5.20;99.90;;;;;;5046289;28;20226;-66
2022/01/27 05:09:48;;;;;;;49.67;27.60;;;5.20;99.90;;;;;;5040399;28;20202;-66
2022/01/27 05:12:26;;;;;;;51.13;26.05;;;5.30;99.90;;;;;;5039727;28;20216;-67
2022/01/27 05:14:58;;;;;;;45.65;26.02;;;5.30;99.90;;;;;;5038900;28;20202;-68
2022/01/27 05:17:27;;;;;;;46.83;26.05;;;5.30;99.90;;;;;;5038945;28;20241;-67
2022/01/27 05:19:55;;;;;;;37.55;22.85;;;5.30;99.90;;;;;;5040002;28;20205;-66
2022/01/27 05:22:23;;;;;;;41.10;23.60;;;5.30;99.90;;;;;;5039913;28;20228;-64
2022/01/27 05:24:51;;;;;;;47.80;24.90;;;5.30;99.90;;;;;;5039684;28;20197;-65
2022/01/27 05:27:19;;;;;;;47.80;26.95;;;5.30;99.90;;;;;;5038986;28;20214;-67
2022/01/27 05:29:46;;;;;;;48.22;24.27;;;5.30;99.90;;;;;;5039674;28;20202;-66
2022/01/27 05:32:14;;;;;;;44.42;25.63;;;5.30;99.90;;;;;;5040265;28;20812;-64
2022/01/27 05:34:43;;;;;;;43.72;25.55;;;5.20;99.90;;;;;;5039743;28;20201;-64
2022/01/27 05:37:11;;;;;;;51.20;27.55;;;5.20;99.90;;;;;;5039483;28;20240;-64
2022/01/27 05:39:40;;;;;;;52.38;26.20;;;5.20;99.90;;;;;;5039321;28;20297;-64
2022/01/27 05:42:09;;;;;;;48.78;25.15;;;5.10;99.90;;;;;;5038963;28;20288;-67
2022/01/27 05:44:36;;;;;;;43.97;24.15;;;5.20;99.90;;;;;;5039612;28;20205;-65
2022/01/27 05:47:05;;;;;;;42.20;24.27;;;5.20;99.90;;;;;;5039604;28;20316;-65
2022/01/27 05:49:33;;;;;;;52.88;25.25;;;5.20;99.90;;;;;;5039476;28;20233;-65
2022/01/27 05:52:03;;;;;;;40.40;23.85;;;5.20;99.90;;;;;;5039668;28;20283;-66
2022/01/27 05:54:33;;;;;;;43.50;24.80;;;5.20;99.90;;;;;;5039083;28;20200;-67
2022/01/27 05:57:01;;;;;;;38.25;22.30;;;5.20;99.90;;;;;;5039078;28;20226;-66
2022/01/27 05:59:29;;;;;;;35.15;21.27;;;5.20;99.90;;;;;;5039332;28;20819;-67
2022/01/27 06:01:57;;;;;;;49.78;23.67;;;5.20;99.90;;;;;;5039686;28;20202;-67
2022/01/27 06:04:25;;;;;;;42.78;22.92;;;5.10;99.90;;;;;;5039034;28;20202;-66
2022/01/27 06:06:54;;;;;;;39.28;21.70;;;5.10;99.90;;;;;;5038938;28;20217;-65
2022/01/27 06:09:23;;;;;;;41.80;22.13;;;5.10;99.90;;;;;;5039362;28;20229;-65
2022/01/27 06:11:51;;;;;;;42.08;23.13;;;5.10;99.90;;;;;;5039229;28;20237;-66
2022/01/27 06:14:19;;;;;;;41.38;21.95;;;5.10;99.90;;;;;;5039554;28;20205;-66
2022/01/27 06:16:48;;;;;;;42.50;20.95;;;5.10;99.90;;;;;;5039159;28;20217;-66
2022/01/27 06:19:16;;;;;;;37.40;22.73;;;5.10;99.90;;;;;;5039881;28;20233;-66
2022/01/27 06:21:45;;;;;;;40.22;22.13;;;5.10;99.90;;;;;;5039420;28;20680;-65
2022/01/27 06:24:13;;;;;;;41.28;20.75;;;5.10;99.90;;;;;;5039061;28;20212;-66
2022/01/27 06:26:42;;;;;;;39.10;20.65;;;5.10;99.90;;;;;;5039616;28;20205;-67
2022/01/27 06:29:10;;;;;;;39.38;20.35;;;5.20;99.90;;;;;;5039405;28;20198;-66
2022/01/27 06:31:38;;;;;;;35.08;20.20;;;5.20;99.90;;;;;;5038986;28;20284;-68
2022/01/27 06:34:06;;;;;;;37.78;19.60;;;5.20;99.90;;;;;;5039254;28;20205;-67
2022/01/27 06:36:34;;;;;;;37.35;20.65;;;5.20;99.90;;;;;;5039351;28;20204;-69
2022/01/27 06:39:02;;;;;;;32.83;18.80;;;5.30;99.90;;;;;;5043416;28;20339;-69
2022/01/27 06:41:30;;;;;;;35.28;19.30;;;5.30;99.90;;;;;;5044263;28;20205;-68
2022/01/27 06:44:02;;;;;;;35.72;19.95;;;5.20;99.90;;;;;;5039777;28;20212;-66
2022/01/27 06:46:30;;;;;;;34.28;19.77;;;5.30;99.90;;;;;;5039938;28;20205;-68
2022/01/27 06:48:58;;;;;;;37.50;20.95;;;5.30;99.90;;;;;;5041516;28;20197;-67
2022/01/27 06:51:27;;;;;;;35.72;19.10;;;5.30;99.90;;;;;;5041398;28;20289;-67
2022/01/27 06:53:55;;;;;;;34.95;19.92;;;5.30;99.90;;;;;;5041243;28;20194;-68
2022/01/27 06:56:22;;;;;;;29.20;18.48;;;5.40;99.90;;;;;;5041600;28;20205;-69
2022/01/27 06:58:50;;;;;;;34.53;19.10;;;5.40;99.90;;;;;;5041274;28;20768;-68
2022/01/27 07:01:20;;;;;;;36.92;20.52;;;5.30;99.90;;;;;;5040875;28;20208;-66
2022/01/27 07:03:48;;;;;;;34.70;19.35;;;5.30;99.90;;;;;;5041363;28;20208;-67
2022/01/27 07:06:17;;;;;;;37.70;18.38;;;5.30;99.90;;;;;;5041572;28;20277;-68
2022/01/27 07:08:45;;;;;;;35.20;18.75;;;5.30;99.90;;;;;;5039126;28;20233;-67
2022/01/27 07:11:13;;;;;;;32.22;19.98;;;5.40;99.90;;;;;;5038915;28;20198;-66
2022/01/27 07:13:42;;;;;;;34.80;18.40;;;5.40;99.90;;;;;;5040327;28;20267;-69
2022/01/27 07:16:10;;;;;;;32.53;19.13;;;5.40;99.90;;;;;;5040787;28;20752;-68
2022/01/27 07:18:40;;;;;;;33.53;17.42;;;5.40;99.90;;;;;;5040053;28;20313;-67
2022/01/27 07:21:08;;;;;;;32.20;19.95;;;5.40;99.90;;;;;;5040404;28;20194;-67
2022/01/27 07:23:36;;;;;;;31.67;18.45;;;5.40;99.90;;;;;;5040294;28;20288;-68
2022/01/27 07:26:04;;;;;;;31.88;17.90;;;5.40;99.90;;;;;;5039970;28;20202;-68
2022/01/27 07:28:32;;;;;;;36.35;19.85;;;5.30;99.90;;;;;;5038045;28;20317;-68
2022/01/27 07:31:01;;;;;;;31.00;18.98;;;5.30;99.90;;;;;;5042386;28;20198;-68
2022/01/27 07:33:32;;;;;;;28.40;17.52;;;5.40;99.90;;;;;;5044737;28;20210;-69
2022/01/27 07:36:01;;;;;;;34.65;19.83;;;5.40;99.90;;;;;;5039533;28;20198;-67
2022/01/27 07:38:29;;;;;;;37.65;17.35;;;5.40;99.90;;;;;;5040150;28;20360;-66
2022/01/27 07:40:57;;;;;;;31.48;17.77;;;5.40;99.90;;;;;;5045987;28;20289;-67
2022/01/27 07:43:24;;;;;;;27.45;16.92;;;5.50;99.90;;;;;;5039084;28;20293;-67
2022/01/27 07:45:52;;;;;;;36.95;19.70;;;5.50;99.90;;;;;;5040757;28;20201;-67
2022/01/27 07:48:20;;;;;;;33.03;16.92;;;5.60;99.90;;;;;;5040811;28;20317;-68
2022/01/27 07:50:48;;;;;;;33.03;16.38;;;5.60;99.90;;;;;;5039346;28;20204;-67
2022/01/27 07:53:18;;;;;;;35.85;19.77;;;5.70;99.90;;;;;;5040406;28;20202;-66
2022/01/27 07:55:45;;;;;;;34.20;18.33;;;5.80;99.90;;;;;;5038465;28;20212;-71
2022/01/27 07:58:13;;;;;;;31.10;15.65;;;5.90;99.90;;;;;;5038473;28;20226;-71
2022/01/27 08:00:41;;;;;;;35.72;18.45;;;6.00;99.90;;;;;;5035743;28;20213;-74
2022/01/27 08:03:09;;;;;;;36.40;19.73;;;6.00;99.90;;;;;;5038691;28;20403;-69
2022/01/27 08:05:38;;;;;;;31.73;17.67;;;6.10;99.90;;;;;;5040247;28;20221;-73
2022/01/27 08:08:06;;;;;;;30.38;16.30;;;6.00;99.90;;;;;;5040412;28;20222;-69
2022/01/27 08:10:38;;;;;;;27.42;17.10;;;6.00;99.90;;;;;;5042815;28;20698;-70
2022/01/27 08:13:07;;;;;;;31.65;16.92;;;6.00;99.90;;;;;;5041192;28;20194;-71
2022/01/27 08:15:35;;;;;;;26.10;15.95;;;6.00;99.90;;;;;;5039838;28;20251;-71
2022/01/27 08:18:04;;;;;;;27.08;15.70;;;6.00;99.90;;;;;;5040161;28;20214;-72
2022/01/27 08:20:33;;;;;;;26.35;14.82;;;6.00;99.90;;;;;;5040094;28;20991;-70
2022/01/27 08:23:01;;;;;;;24.60;14.18;;;5.90;99.90;;;;;;5037666;28;21000;-71
2022/01/27 08:25:29;;;;;;;22.10;14.20;;;5.90;99.90;;;;;;5039586;28;20241;-73
2022/01/27 08:28:01;;;;;;;30.15;16.45;;;5.90;99.90;;;;;;5040002;28;20309;-70
2022/01/27 08:30:36;;;;;;;25.08;14.40;;;5.90;99.90;;;;;;5040288;28;20238;-69
2022/01/27 08:33:08;;;;;;;24.25;14.55;;;5.90;99.90;;;;;;5039588;28;20212;-73
2022/01/27 08:35:36;;;;;;;26.77;15.20;;;5.90;99.90;;;;;;5039955;28;20868;-72
2022/01/27 08:38:04;;;;;;;22.00;12.95;;;5.90;99.90;;;;;;5039950;28;20221;-73
2022/01/27 08:40:32;;;;;;;23.75;13.85;;;6.00;99.90;;;;;;5039827;28;20860;-71
2022/01/27 08:43:07;;;;;;;24.58;14.15;;;6.00;99.90;;;;;;5039444;28;20205;-68
2022/01/27 08:45:38;;;;;;;22.23;14.02;;;5.90;99.90;;;;;;5039414;28;20887;-73
2022/01/27 08:48:10;;;;;;;22.48;13.38;;;6.00;99.90;;;;;;5044276;28;20244;-70
2022/01/27 08:50:38;;;;;;;23.70;13.68;;;6.00;99.90;;;;;;5043146;28;20201;-70
2022/01/27 08:53:07;;;;;;;25.13;13.02;;;6.00;99.90;;;;;;5043162;28;20240;-68
2022/01/27 08:55:39;;;;;;;21.30;14.45;;;6.00;99.90;;;;;;5041890;28;20719;-67
2022/01/27 08:58:08;;;;;;;19.45;12.23;;;5.90;99.90;;;;;;5042613;28;20236;-72
2022/01/27 09:00:36;;;;;;;19.05;12.52;;;5.80;99.90;;;;;;5040389;28;20730;-72
2022/01/27 09:03:04;;;;;;;22.58;13.02;;;5.90;99.90;;;;;;5039881;28;20212;-68
2022/01/27 09:05:32;;;;;;;21.25;13.63;;;5.90;99.90;;;;;;5039723;28;20202;-69
2022/01/27 09:08:04;;;;;;;17.27;11.98;;;5.90;99.90;;;;;;5039863;28;20436;-71
2022/01/27 09:10:33;;;;;;;22.92;14.88;;;5.90;99.90;;;;;;5039932;28;20598;-70
2022/01/27 09:13:02;;;;;;;19.35;12.02;;;6.00;99.90;;;;;;5040667;28;20198;-71
2022/01/27 09:15:33;;;;;;;21.80;12.38;;;6.00;99.90;;;;;;5040431;28;20688;-71
2022/01/27 09:18:01;;;;;;;18.17;11.90;;;6.00;99.90;;;;;;5041339;28;20305;-70
2022/01/27 09:20:31;;;;;;;20.20;12.15;;;6.00;99.90;;;;;;5043204;28;20230;-73
2022/01/27 09:23:00;;;;;;;21.33;11.93;;;6.00;99.90;;;;;;5045836;28;20210;-72
2022/01/27 09:25:33;;;;;;;20.10;12.15;;;6.00;99.90;;;;;;5044079;28;20285;-72
2022/01/27 09:28:02;;;;;;;19.50;11.43;;;6.10;99.90;;;;;;5042212;28;20308;-72
2022/01/27 09:30:31;;;;;;;24.23;12.00;;;6.10;99.90;;;;;;5040871;28;20312;-70
2022/01/27 09:32:59;;;;;;;19.85;10.60;;;6.10;99.90;;;;;;5039730;28;20205;-71
2022/01/27 09:35:31;;;;;;;14.38;10.40;;;6.20;99.90;;;;;;5038851;28;20268;-70
2022/01/27 09:38:00;;;;;;;15.98;9.98;;;6.20;99.90;;;;;;5039948;28;20230;-71
2022/01/27 09:40:29;;;;;;;17.02;10.82;;;6.30;99.90;;;;;;5039576;28;20308;-70
2022/01/27 09:43:00;;;;;;;14.07;8.85;;;6.30;99.90;;;;;;5040767;28;20197;-73
2022/01/27 09:45:29;;;;;;;14.05;9.18;;;6.40;99.90;;;;;;5041106;28;21151;-73
2022/01/27 09:48:02;;;;;;;16.20;9.27;;;6.40;99.90;;;;;;5040922;28;20233;-73
2022/01/27 09:50:46;;;;;;;12.48;8.18;;;6.40;99.90;;;;;;5042584;28;20202;-73
2022/01/27 09:53:15;;;;;;;13.40;8.15;;;6.40;99.90;;;;;;5041315;28;20225;-74
2022/01/27 09:55:43;;;;;;;15.85;8.88;;;6.40;99.90;;;;;;5040061;28;20296;-72
2022/01/27 09:58:11;;;;;;;14.52;8.50;;;6.40;99.90;;;;;;5038767;28;20279;-72
2022/01/27 10:00:39;;;;;;;12.95;8.20;;;6.40;99.90;;;;;;5039373;28;20234;-69
2022/01/27 10:03:11;;;;;;;11.73;8.52;;;6.40;99.90;;;;;;5038729;28;20201;-70
2022/01/27 10:05:41;;;;;;;10.18;7.50;;;6.40;99.90;;;;;;5040295;28;20205;-70
2022/01/27 10:08:12;;;;;;;12.02;8.15;;;6.40;99.90;;;;;;5039749;28;20228;-68
2022/01/27 10:10:42;;;;;;;12.52;7.88;;;6.50;99.90;;;;;;5039679;28;20190;-70
2022/01/27 10:13:12;;;;;;;11.70;7.78;;;6.50;99.90;;;;;;5042432;28;20284;-71
2022/01/27 10:15:46;;;;;;;12.35;8.35;;;6.60;99.90;;;;;;5043673;28;20220;-70
2022/01/27 10:18:17;;;;;;;12.68;8.13;;;6.60;99.90;;;;;;5044234;28;20209;-73
2022/01/27 10:20:50;;;;;;;13.15;7.65;;;6.60;99.90;;;;;;5043851;28;20217;-72
2022/01/27 10:23:21;;;;;;;13.13;9.05;;;6.70;99.90;;;;;;5043267;28;20307;-72
2022/01/27 10:25:52;;;;;;;12.10;7.88;;;6.70;99.90;;;;;;5042324;28;20208;-71
2022/01/27 10:28:31;;;;;;;14.05;8.38;;;6.80;99.90;;;;;;5041173;28;20218;-69
2022/01/27 10:31:01;;;;;;;14.43;8.30;;;6.90;99.90;;;;;;5040889;28;20253;-70
2022/01/27 10:33:48;;;;;;;12.02;9.80;;;6.90;99.90;;;;;;5043037;28;20220;-71
2022/01/27 10:36:22;;;;;;;12.43;8.68;;;7.00;99.90;;;;;;5041315;28;20202;-70
2022/01/27 10:38:53;;;;;;;18.52;8.70;;;7.10;99.90;;;;;;5044328;28;20206;-70
2022/01/27 10:41:22;;;;;;;12.68;8.73;;;7.10;99.90;;;;;;5040050;28;20941;-70
2022/01/27 10:43:50;;;;;;;9.80;7.53;;;7.10;99.90;;;;;;5042862;28;20194;-71
2022/01/27 10:46:24;;;;;;;12.55;7.18;;;7.20;99.90;;;;;;5039000;28;20229;-70
2022/01/27 10:49:00;;;;;;;14.38;8.50;;;7.20;99.90;;;;;;5039780;28;20208;-68
2022/01/27 10:51:32;;;;;;;12.65;7.85;;;7.20;99.90;;;;;;5041384;28;20240;-68
2022/01/27 10:54:04;;;;;;;11.70;7.10;;;7.30;99.90;;;;;;5042364;28;20216;-71
2022/01/27 10:56:35;;;;;;;13.13;7.75;;;7.30;99.90;;;;;;5043589;28;20197;-71
2022/01/27 10:59:07;;;;;;;14.77;7.78;;;7.40;99.90;;;;;;5041890;28;20842;-70
2022/01/27 11:01:39;;;;;;;26.65;8.98;;;7.40;99.90;;;;;;5043058;28;20221;-69
2022/01/27 11:04:10;;;;;;;23.27;9.05;;;7.40;99.90;;;;;;5043219;28;20202;-70
2022/01/27 11:06:54;;;;;;;17.33;8.75;;;7.50;99.90;;;;;;5042612;28;20277;-70
2022/01/27 11:09:22;;;;;;;18.15;9.18;;;7.50;99.90;;;;;;5041445;28;20208;-71
2022/01/27 11:11:52;;;;;;;18.80;8.77;;;7.60;99.90;;;;;;5041746;28;20786;-68
2022/01/27 11:14:23;;;;;;;21.33;9.50;;;7.70;99.90;;;;;;5042393;28;20197;-70
2022/01/27 11:16:55;;;;;;;21.40;10.73;;;7.80;99.90;;;;;;5041681;28;20221;-68
2022/01/27 11:19:51;;;;;;;22.67;8.52;;;7.80;99.90;;;;;;5042133;28;20284;-68
2022/01/27 11:22:40;;;;;;;23.60;9.20;;;7.90;99.90;;;;;;5040903;28;20188;-70
2022/01/27 11:25:49;;;;;;;22.25;9.68;;;8.00;99.90;;;;;;5041987;28;20193;-69
2022/01/27 11:28:02;;;;;;;17.67;8.55;;;8.10;99.90;;;;;;5040561;28;20276;-71
2022/01/27 11:30:37;;;;;;;23.05;8.45;;;8.10;99.90;;;;;;5042225;28;20205;-70
2022/01/27 11:33:09;;;;;;;40.45;9.25;;;8.20;99.90;;;;;;5042208;28;20212;-69
2022/01/27 11:36:08;;;;;;;17.25;6.85;;;8.20;99.90;;;;;;5041463;28;20202;-70
2022/01/27 11:38:36;;;;;;;22.48;8.25;;;8.20;99.90;;;;;;5041762;28;20779;-71
2022/01/27 11:41:04;;;;;;;24.83;6.85;;;8.30;99.90;;;;;;5041312;28;20232;-71
2022/01/27 11:43:33;;;;;;;20.27;8.38;;;8.30;99.90;;;;;;5041895;28;20212;-74
2022/01/27 11:46:13;;;;;;;29.67;6.88;;;8.40;99.90;;;;;;5041857;28;20198;-72
2022/01/27 11:48:41;;;;;;;18.67;6.35;;;8.40;99.90;;;;;;5038796;28;20293;-68
2022/01/27 11:51:13;;;;;;;24.25;6.18;;;8.50;99.90;;;;;;5040740;28;20193;-66
2022/01/27 11:53:43;;;;;;;24.27;5.55;;;8.50;99.90;;;;;;5041584;28;20774;-66
2022/01/27 11:56:35;;;;;;;27.17;6.32;;;8.40;99.90;;;;;;5041110;28;20288;-66
2022/01/27 11:59:05;;;;;;;22.58;6.18;;;8.40;99.90;;;;;;5040390;28;20190;-66
2022/01/27 12:01:35;;;;;;;29.80;6.18;;;8.50;99.90;;;;;;5039118;28;20222;-66
2022/01/27 12:04:15;;;;;;;32.65;6.35;;;8.60;99.90;;;;;;5039426;28;20198;-66
2022/01/27 12:07:05;;;;;;;15.68;4.18;;;8.60;99.90;;;;;;5037569;28;20197;-67
2022/01/27 12:09:35;;;;;;;17.75;5.05;;;8.70;99.90;;;;;;5038599;28;20318;-68
2022/01/27 12:12:11;;;;;;;20.80;5.55;;;8.60;99.90;;;;;;5040937;28;20217;-68
2022/01/27 12:15:07;;;;;;;21.27;5.53;;;8.60;99.90;;;;;;5039557;28;20244;-68
2022/01/27 12:17:35;;;;;;;19.88;5.13;;;8.70;99.90;;;;;;5040462;28;20221;-74
2022/01/27 12:20:08;;;;;;;17.83;5.30;;;8.80;99.90;;;;;;5040638;28;20197;-71
2022/01/27 12:23:13;;;;;;;17.83;5.30;;;8.80;99.90;;;;;;5049390;28;20310;-69
2022/01/27 12:25:53;;;;;;;19.08;5.03;;;8.80;99.90;;;;;;5056346;28;20201;-70
2022/01/27 12:28:22;;;;;;;16.83;4.20;;;8.80;99.90;;;;;;5057901;28;20277;-69
2022/01/27 12:30:58;;;;;;;21.25;5.38;;;8.90;99.90;;;;;;5061587;28;20250;-70
2022/01/27 12:33:26;;;;;;;18.98;4.60;;;8.90;99.90;;;;;;5041353;28;20190;-71
2022/01/27 12:35:58;;;;;;;12.40;4.70;;;9.10;99.90;;;;;;5035109;28;20194;-71
2022/01/27 12:38:27;;;;;;;15.93;4.28;;;9.10;99.90;;;;;;5039568;28;20213;-70
2022/01/27 12:40:56;;;;;;;18.13;4.90;;;9.10;99.90;;;;;;5035737;28;20241;-70
2022/01/27 12:43:24;;;;;;;20.90;3.83;;;9.10;99.90;;;;;;5038334;28;20779;-70
2022/01/27 12:45:53;;;;;;;20.17;5.60;;;9.10;99.90;;;;;;5038799;28;20200;-71
2022/01/27 12:48:25;;;;;;;14.02;4.07;;;9.00;99.90;;;;;;5038875;28;20286;-70
2022/01/27 12:51:00;;;;;;;12.43;3.58;;;8.90;99.90;;;;;;5039687;28;20200;-70
2022/01/27 12:53:30;;;;;;;26.42;5.07;;;8.80;99.90;;;;;;5038811;28;20250;-70
2022/01/27 12:56:00;;;;;;;21.88;4.65;;;8.80;99.90;;;;;;5037133;28;20310;-70
2022/01/27 12:58:32;;;;;;;24.25;5.53;;;8.90;99.90;;;;;;5040288;28;20316;-71
2022/01/27 13:01:01;;;;;;;9.68;3.90;;;8.90;99.90;;;;;;5038587;28;20240;-74
2022/01/27 13:03:29;;;;;;;26.02;5.38;;;8.90;99.90;;;;;;5039966;28;20816;-70
2022/01/27 13:06:03;;;;;;;18.13;4.18;;;9.00;99.90;;;;;;5037775;28;20277;-71
2022/01/27 13:08:36;;;;;;;19.45;5.00;;;9.20;99.90;;;;;;5048852;28;20403;-72
2022/01/27 13:11:10;;;;;;;14.13;4.00;;;9.20;99.90;;;;;;5050020;28;20213;-70
2022/01/27 13:13:41;;;;;;;12.32;3.90;;;9.20;99.90;;;;;;5044690;28;20219;-71
2022/01/27 13:16:15;;;;;;;24.77;4.95;;;9.30;99.90;;;;;;5040534;28;20196;-70
2022/01/27 13:19:01;;;;;;;18.02;4.45;;;9.40;99.90;;;;;;5036241;28;20224;-71
2022/01/27 13:21:32;;;;;;;19.20;4.25;;;9.50;99.90;;;;;;5039032;28;20324;-71
2022/01/27 13:24:09;;;;;;;12.80;3.90;;;9.50;99.90;;;;;;5040167;28;20285;-70